createdAt,value
2023-02-11T00:01:24.455Z,9.10
2023-02-11T00:03:52.561Z,9.10
2023-02-11T00:06:20.201Z,9.10
2023-02-11T00:08:48.270Z,9.10
2023-02-11T00:11:18.351Z,9.10
2023-02-11T00:13:47.298Z,9.10
2023-02-11T00:16:17.686Z,9.10
2023-02-11T00:18:45.444Z,9.10
2023-02-11T00:21:18.949Z,9.00
2023-02-11T00:23:47.391Z,9.00
2023-02-11T00:26:17.692Z,9.00
2023-02-11T00:28:46.587Z,9.00
2023-02-11T00:31:15.532Z,9.00
2023-02-11T00:33:43.427Z,8.90
2023-02-11T00:36:17.316Z,8.90
2023-02-11T00:38:49.927Z,8.90
2023-02-11T00:41:18.696Z,8.80
2023-02-11T00:43:46.464Z,8.80
2023-02-11T00:46:15.384Z,8.70
2023-02-11T00:48:43.460Z,8.70
2023-02-11T00:51:11.333Z,8.70
2023-02-11T00:53:38.851Z,8.70
2023-02-11T00:56:07.259Z,8.70
2023-02-11T00:58:35.308Z,8.60
2023-02-11T01:01:03.625Z,8.60
2023-02-11T01:03:31.534Z,8.60
2023-02-11T01:05:59.194Z,8.60
2023-02-11T01:08:27.172Z,8.60
2023-02-11T01:11:00.546Z,8.60
2023-02-11T01:13:29.222Z,8.60
2023-02-11T01:15:56.979Z,8.60
2023-02-11T01:18:25.538Z,8.60
2023-02-11T01:20:53.949Z,8.60
2023-02-11T01:23:21.760Z,8.60
2023-02-11T01:25:49.711Z,8.70
2023-02-11T01:28:24.331Z,8.70
2023-02-11T01:30:53.664Z,8.70
2023-02-11T01:33:22.615Z,8.70
2023-02-11T01:35:51.348Z,8.70
2023-02-11T01:38:22.694Z,8.70
2023-02-11T01:40:55.976Z,8.70
2023-02-11T01:43:25.453Z,8.80
2023-02-11T01:46:28.925Z,8.80
2023-02-11T01:49:10.171Z,8.80
2023-02-11T01:51:43.738Z,8.80
2023-02-11T01:54:34.944Z,8.90
2023-02-11T01:57:22.102Z,8.90
2023-02-11T01:59:57.903Z,8.90
2023-02-11T02:02:41.735Z,8.90
2023-02-11T02:05:24.597Z,8.90
2023-02-11T02:08:19.427Z,8.90
2023-02-11T02:10:50.155Z,8.90
2023-02-11T02:13:20.603Z,8.80
2023-02-11T02:15:52.612Z,8.90
2023-02-11T02:18:51.217Z,8.90
2023-02-11T02:21:37.610Z,8.90
2023-02-11T02:24:23.999Z,8.90
2023-02-11T02:27:13.548Z,8.90
2023-02-11T02:30:03.550Z,8.90
2023-02-11T02:32:48.189Z,8.80
2023-02-11T02:35:36.465Z,8.80
2023-02-11T02:38:35.748Z,8.80
2023-02-11T02:41:16.137Z,8.80
2023-02-11T02:43:47.787Z,8.80
2023-02-11T02:46:28.275Z,8.70
2023-02-11T02:48:56.778Z,8.70
2023-02-11T02:52:04.636Z,8.70
2023-02-11T02:54:41.180Z,8.70
2023-02-11T02:57:38.048Z,8.70
2023-02-11T03:00:14.470Z,8.70
2023-02-11T03:03:07.931Z,8.70
2023-02-11T03:06:05.752Z,8.70
2023-02-11T03:08:36.857Z,8.60
2023-02-11T03:11:06.103Z,8.60
2023-02-11T03:13:37.286Z,8.60
2023-02-11T03:16:12.190Z,8.60
2023-02-11T03:18:43.095Z,8.60
2023-02-11T03:21:12.410Z,8.60
2023-02-11T03:23:51.471Z,8.50
2023-02-11T03:26:26.002Z,8.50
2023-02-11T03:29:08.310Z,8.50
2023-02-11T03:31:46.140Z,8.50
2023-02-11T03:34:19.529Z,8.50
2023-02-11T03:36:53.967Z,8.50
2023-02-11T03:39:31.886Z,8.40
2023-02-11T03:42:02.060Z,8.40
2023-02-11T03:44:35.054Z,8.40
2023-02-11T03:47:05.771Z,8.30
2023-02-11T03:49:36.142Z,8.40
2023-02-11T03:52:06.750Z,8.30
2023-02-11T03:54:35.350Z,8.30
2023-02-11T03:57:03.775Z,8.30
2023-02-11T03:59:31.388Z,8.30
2023-02-11T04:01:59.650Z,8.30
2023-02-11T04:04:27.394Z,8.30
2023-02-11T04:06:54.932Z,8.30
2023-02-11T04:09:22.517Z,8.30
2023-02-11T04:11:49.991Z,8.30
2023-02-11T04:14:17.587Z,8.30
2023-02-11T04:16:45.201Z,8.30
2023-02-11T04:19:12.866Z,8.30
2023-02-11T04:21:40.386Z,8.30
2023-02-11T04:24:07.973Z,8.30
2023-02-11T04:26:35.494Z,8.30
2023-02-11T04:29:03.108Z,8.30
2023-02-11T04:31:30.747Z,8.30
2023-02-11T04:33:58.281Z,8.30
2023-02-11T04:36:25.838Z,8.30
2023-02-11T04:38:53.391Z,8.30
2023-02-11T04:41:20.908Z,8.20
2023-02-11T04:43:48.490Z,8.30
2023-02-11T04:46:16.040Z,8.30
2023-02-11T04:48:43.614Z,8.30
2023-02-11T04:51:11.472Z,8.20
2023-02-11T04:53:39.062Z,8.30
2023-02-11T04:58:34.824Z,8.30
2023-02-11T05:01:10.116Z,8.30
2023-02-11T05:06:06.551Z,8.30
2023-02-11T05:08:34.269Z,8.20
2023-02-11T05:11:02.295Z,8.20
2023-02-11T05:13:30.498Z,8.20
2023-02-11T05:15:58.028Z,8.20
2023-02-11T05:18:25.600Z,8.30
2023-02-11T05:20:53.164Z,8.20
2023-02-11T05:23:20.732Z,8.20
2023-02-11T05:25:48.433Z,8.20
2023-02-11T05:28:16.309Z,8.20
2023-02-11T05:30:43.873Z,8.20
2023-02-11T05:33:11.479Z,8.30
2023-02-11T05:35:39.058Z,8.20
2023-02-11T05:38:06.641Z,8.20
2023-02-11T05:40:34.164Z,8.20
2023-02-11T05:43:01.732Z,8.20
2023-02-11T05:45:29.355Z,8.20
2023-02-11T05:47:57.468Z,8.20
2023-02-11T05:50:24.991Z,8.20
2023-02-11T05:52:53.704Z,8.20
2023-02-11T05:55:21.611Z,8.20
2023-02-11T05:57:49.256Z,8.20
2023-02-11T06:00:17.414Z,8.20
2023-02-11T06:02:45.242Z,8.20
2023-02-11T06:05:12.786Z,8.20
2023-02-11T06:07:40.419Z,8.20
2023-02-11T06:10:09.242Z,8.20
2023-02-11T06:12:38.589Z,8.10
2023-02-11T06:15:06.966Z,8.10
2023-02-11T06:17:36.597Z,8.10
2023-02-11T06:20:07.147Z,9.60
2023-02-11T06:22:35.142Z,8.10
2023-02-11T06:25:02.919Z,8.10
2023-02-11T06:27:31.597Z,8.10
2023-02-11T06:29:59.202Z,8.10
2023-02-11T06:32:43.832Z,8.10
2023-02-11T06:35:13.127Z,8.10
2023-02-11T06:37:41.966Z,8.10
2023-02-11T06:40:11.040Z,8.00
2023-02-11T06:42:39.432Z,8.00
2023-02-11T06:45:09.635Z,9.90
2023-02-11T06:47:37.437Z,8.00
2023-02-11T06:50:05.958Z,8.00
2023-02-11T06:52:33.961Z,8.00
2023-02-11T06:55:02.623Z,8.00
2023-02-11T06:57:31.747Z,7.90
2023-02-11T06:59:59.289Z,8.00
2023-02-11T07:02:26.858Z,7.90
2023-02-11T07:07:22.464Z,8.00
2023-02-11T07:09:49.979Z,8.00
2023-02-11T07:12:17.637Z,7.90
2023-02-11T07:14:45.232Z,7.90
2023-02-11T07:17:12.788Z,7.90
2023-02-11T07:19:40.337Z,7.90
2023-02-11T07:22:07.980Z,7.90
2023-02-11T07:24:35.626Z,7.90
2023-02-11T07:27:03.129Z,7.90
2023-02-11T07:29:30.688Z,7.80
2023-02-11T07:31:58.300Z,7.80
2023-02-11T07:34:25.910Z,7.90
2023-02-11T07:36:53.518Z,7.80
2023-02-11T07:39:22.565Z,7.90
2023-02-11T07:41:50.265Z,7.90
2023-02-11T07:44:18.727Z,7.80
2023-02-11T07:46:47.841Z,7.90
2023-02-11T07:49:16.126Z,7.90
2023-02-11T07:51:43.771Z,7.80
2023-02-11T07:54:12.278Z,7.90
2023-02-11T07:59:09.159Z,7.90
2023-02-11T08:01:37.200Z,7.90
2023-02-11T08:04:05.132Z,7.90
2023-02-11T08:06:35.900Z,7.80
2023-02-11T08:09:08.056Z,7.90
2023-02-11T08:11:36.124Z,7.90
2023-02-11T08:14:03.628Z,7.90
2023-02-11T08:16:36.342Z,7.90
2023-02-11T08:19:11.127Z,7.90
2023-02-11T08:21:39.600Z,7.90
2023-02-11T08:24:07.924Z,7.90
2023-02-11T08:26:36.285Z,7.90
2023-02-11T08:29:09.363Z,7.90
2023-02-11T08:31:40.649Z,8.00
2023-02-11T08:34:08.429Z,8.00
2023-02-11T08:36:37.840Z,8.00
2023-02-11T08:39:18.756Z,8.10
2023-02-11T08:41:49.510Z,8.00
2023-02-11T08:44:18.918Z,8.10
2023-02-11T08:46:47.391Z,8.10
2023-02-11T08:49:16.300Z,8.20
2023-02-11T08:51:47.758Z,8.20
2023-02-11T08:54:18.654Z,8.30
2023-02-11T08:56:46.497Z,8.30
2023-02-11T08:59:15.541Z,8.30
2023-02-11T09:01:44.358Z,8.40
2023-02-11T09:04:12.247Z,8.50
2023-02-11T09:06:40.426Z,8.50
2023-02-11T09:09:12.092Z,8.50
2023-02-11T09:11:41.439Z,8.60
2023-02-11T09:14:17.776Z,8.60
2023-02-11T09:16:45.772Z,8.60
2023-02-11T09:19:13.464Z,8.70
2023-02-11T09:21:41.153Z,8.70
2023-02-11T09:24:08.813Z,8.80
2023-02-11T09:26:37.185Z,8.90
2023-02-11T09:29:05.843Z,8.90
2023-02-11T09:31:34.595Z,8.90
2023-02-11T09:34:04.753Z,9.00
2023-02-11T09:36:34.202Z,9.00
2023-02-11T09:39:03.794Z,9.10
2023-02-11T09:41:43.448Z,9.10
2023-02-11T09:44:36.992Z,9.10
2023-02-11T09:47:06.421Z,9.20
2023-02-11T09:49:48.781Z,9.20
2023-02-11T09:52:34.269Z,9.20
2023-02-11T09:55:05.013Z,9.30
2023-02-11T09:57:37.387Z,9.40
2023-02-11T10:00:32.263Z,9.40
2023-02-11T10:03:11.501Z,9.50
2023-02-11T10:06:00.879Z,9.50
2023-02-11T10:08:42.860Z,9.50
2023-02-11T10:11:44.405Z,9.50
2023-02-11T10:14:37.136Z,9.50
2023-02-11T10:17:52.552Z,9.50
2023-02-11T10:20:35.849Z,9.50
2023-02-11T10:23:36.933Z,9.60
2023-02-11T10:26:12.955Z,9.60
2023-02-11T10:28:43.997Z,9.70
2023-02-11T10:31:21.780Z,9.70
2023-02-11T10:34:09.849Z,9.70
2023-02-11T10:36:40.957Z,9.90
2023-02-11T10:39:15.411Z,9.80
2023-02-11T10:42:01.943Z,9.90
2023-02-11T10:44:34.116Z,9.90
2023-02-11T10:47:24.103Z,10.00
2023-02-11T10:49:52.290Z,10.00
2023-02-11T10:52:27.643Z,10.10
2023-02-11T10:55:13.590Z,10.20
2023-02-11T10:57:54.802Z,10.30
2023-02-11T11:00:36.903Z,10.40
2023-02-11T11:03:26.129Z,10.60
2023-02-11T11:06:00.923Z,10.60
2023-02-11T11:08:43.857Z,10.60
2023-02-11T11:11:22.640Z,10.70
2023-02-11T11:13:52.960Z,10.70
2023-02-11T11:16:25.096Z,10.80
2023-02-11T11:19:14.545Z,10.80
2023-02-11T11:21:49.730Z,10.80
2023-02-11T11:24:31.296Z,10.90
2023-02-11T11:27:01.942Z,10.90
2023-02-11T11:30:01.391Z,10.80
2023-02-11T11:32:33.098Z,10.90
2023-02-11T11:35:03.859Z,10.80
2023-02-11T11:37:34.982Z,10.80
2023-02-11T11:40:08.599Z,10.80
2023-02-11T11:42:38.866Z,10.80
2023-02-11T11:45:15.745Z,10.70
2023-02-11T11:47:59.853Z,10.70
2023-02-11T11:50:47.300Z,10.60
2023-02-11T11:53:46.054Z,10.60
2023-02-11T11:56:18.333Z,10.50
2023-02-11T11:58:46.339Z,10.50
2023-02-11T12:01:20.010Z,10.40
2023-02-11T12:04:06.748Z,13.10
2023-02-11T12:06:49.105Z,10.30
2023-02-11T12:09:22.397Z,10.30
2023-02-11T12:12:26.682Z,10.30
2023-02-11T12:15:21.613Z,10.30
2023-02-11T12:18:00.623Z,10.30
2023-02-11T12:20:46.730Z,10.50
2023-02-11T12:23:47.652Z,10.50
2023-02-11T12:26:20.453Z,10.40
2023-02-11T12:29:32.202Z,10.40
2023-02-11T12:32:38.217Z,10.40
2023-02-11T12:35:21.030Z,10.30
2023-02-11T12:38:18.866Z,10.40
2023-02-11T12:40:52.787Z,10.40
2023-02-11T12:43:37.037Z,10.40
2023-02-11T12:46:33.389Z,10.50
2023-02-11T12:49:24.068Z,10.50
2023-02-11T12:52:10.472Z,10.50
2023-02-11T12:54:44.872Z,10.50
2023-02-11T12:57:23.134Z,10.50
2023-02-11T13:00:19.648Z,10.50
2023-02-11T13:03:11.159Z,10.50
2023-02-11T13:05:49.515Z,10.40
2023-02-11T13:08:29.075Z,10.30
2023-02-11T13:11:00.772Z,10.30
2023-02-11T13:13:49.987Z,10.20
2023-02-11T13:16:37.986Z,10.10
2023-02-11T13:19:35.069Z,10.10
2023-02-11T13:22:20.359Z,10.00
2023-02-11T13:25:14.946Z,10.00
2023-02-11T13:27:59.875Z,9.90
2023-02-11T13:30:39.422Z,10.00
2023-02-11T13:33:19.305Z,9.90
2023-02-11T13:36:09.880Z,9.90
2023-02-11T13:38:38.297Z,9.90
2023-02-11T13:41:16.085Z,9.90
2023-02-11T13:43:44.516Z,9.90
2023-02-11T13:46:15.162Z,9.90
2023-02-11T13:48:52.724Z,9.90
2023-02-11T13:51:39.333Z,9.90
2023-02-11T13:54:08.682Z,10.10
2023-02-11T13:56:42.952Z,10.10
2023-02-11T13:59:25.672Z,10.10
2023-02-11T14:02:18.017Z,10.10
2023-02-11T14:05:22.402Z,10.20
2023-02-11T14:08:30.596Z,10.20
2023-02-11T14:11:24.064Z,10.20
2023-02-11T14:13:51.651Z,10.10
2023-02-11T14:16:37.594Z,10.20
2023-02-11T14:19:06.874Z,10.20
2023-02-11T14:21:40.387Z,10.30
2023-02-11T14:24:14.525Z,10.30
2023-02-11T14:27:05.045Z,10.40
2023-02-11T14:29:44.370Z,10.50
2023-02-11T14:32:38.152Z,10.60
2023-02-11T14:35:23.626Z,10.50
2023-02-11T14:37:57.926Z,10.60
2023-02-11T14:41:15.135Z,10.50
2023-02-11T14:43:48.741Z,10.50
2023-02-11T14:46:18.765Z,10.50
2023-02-11T14:48:47.763Z,10.50
2023-02-11T14:51:25.960Z,10.40
2023-02-11T14:54:00.695Z,10.40
2023-02-11T14:56:31.161Z,10.40
2023-02-11T14:58:58.775Z,10.40
2023-02-11T15:01:35.312Z,10.30
2023-02-11T15:04:05.372Z,10.40
2023-02-11T15:06:46.197Z,10.40
2023-02-11T15:09:24.156Z,10.40
2023-02-11T15:11:53.276Z,10.40
2023-02-11T15:14:30.455Z,10.40
2023-02-11T15:17:02.453Z,10.40
2023-02-11T15:19:35.763Z,10.30
2023-02-11T15:22:07.347Z,10.30
2023-02-11T15:24:35.954Z,10.30
2023-02-11T15:27:08.137Z,10.30
2023-02-11T15:29:39.054Z,10.30
2023-02-11T15:32:09.984Z,10.20
2023-02-11T15:34:37.843Z,10.20
2023-02-11T15:37:05.981Z,10.20
2023-02-11T15:39:38.072Z,10.20
2023-02-11T15:42:21.127Z,10.20
2023-02-11T15:44:56.411Z,10.20
2023-02-11T15:47:24.557Z,10.20
2023-02-11T15:49:52.295Z,10.20
2023-02-11T15:52:26.504Z,10.20
2023-02-11T15:54:56.460Z,10.10
2023-02-11T15:57:24.140Z,10.10
2023-02-11T15:59:54.112Z,10.10
2023-02-11T16:02:24.450Z,10.10
2023-02-11T16:05:00.904Z,10.10
2023-02-11T16:07:51.873Z,10.10
2023-02-11T16:10:22.548Z,10.00
2023-02-11T16:13:00.631Z,10.00
2023-02-11T16:15:35.234Z,10.00
2023-02-11T16:18:12.541Z,10.00
2023-02-11T16:23:17.604Z,9.90
2023-02-11T16:25:45.187Z,9.90
2023-02-11T16:28:16.508Z,9.90
2023-02-11T16:30:44.346Z,9.80
2023-02-11T16:33:12.180Z,9.80
2023-02-11T16:35:40.458Z,9.80
2023-02-11T16:40:37.396Z,9.80
2023-02-11T16:43:05.088Z,9.70
2023-02-11T16:45:36.873Z,9.70
2023-02-11T16:48:08.305Z,9.70
2023-02-11T16:50:36.252Z,9.70
2023-02-11T16:53:06.481Z,9.70
2023-02-11T16:55:35.241Z,9.60
2023-02-11T16:58:02.823Z,9.60
2023-02-11T17:00:30.721Z,9.60
2023-02-11T17:02:58.430Z,9.60
2023-02-11T17:05:26.963Z,9.60
2023-02-11T17:07:54.492Z,9.50
2023-02-11T17:10:25.899Z,9.50
2023-02-11T17:12:53.510Z,9.50
2023-02-11T17:17:49.099Z,9.40
2023-02-11T17:20:16.984Z,9.40
2023-02-11T17:22:44.738Z,9.40
2023-02-11T17:25:12.598Z,9.30
2023-02-11T17:27:40.637Z,9.30
2023-02-11T17:30:09.424Z,9.30
2023-02-11T17:32:37.980Z,9.30
2023-02-11T17:35:08.470Z,9.30
2023-02-11T17:37:36.231Z,9.20
2023-02-11T17:40:03.923Z,9.20
2023-02-11T17:42:31.638Z,9.20
2023-02-11T17:44:59.137Z,9.20
2023-02-11T17:47:26.843Z,9.20
2023-02-11T17:49:54.367Z,9.20
2023-02-11T17:52:24.187Z,9.20
2023-02-11T17:54:51.757Z,9.20
2023-02-11T17:57:19.290Z,9.20
2023-02-11T17:59:47.215Z,9.20
2023-02-11T18:02:14.990Z,9.10
2023-02-11T18:04:42.690Z,9.10
2023-02-11T18:07:10.555Z,9.10
2023-02-11T18:09:39.819Z,9.10
2023-02-11T18:12:07.918Z,9.10
2023-02-11T18:14:35.641Z,9.00
2023-02-11T18:17:03.250Z,9.00
2023-02-11T18:19:33.036Z,9.00
2023-02-11T18:22:01.308Z,9.00
2023-02-11T18:24:29.003Z,9.00
2023-02-11T18:26:56.656Z,9.00
2023-02-11T18:29:24.170Z,9.00
2023-02-11T18:31:55.692Z,9.00
2023-02-11T18:34:24.217Z,8.90
2023-02-11T18:36:52.772Z,8.90
2023-02-11T18:39:24.214Z,8.90
2023-02-11T18:41:54.827Z,8.90
2023-02-11T18:44:24.723Z,8.90
2023-02-11T18:46:52.890Z,8.90
2023-02-11T18:49:23.333Z,8.90
2023-02-11T18:51:51.099Z,8.90
2023-02-11T18:54:18.667Z,8.90
2023-02-11T18:56:46.558Z,8.90
2023-02-11T18:59:14.495Z,8.90
2023-02-11T19:01:46.796Z,8.80
2023-02-11T19:04:20.128Z,8.80
2023-02-11T19:06:49.805Z,8.80
2023-02-11T19:09:20.184Z,8.80
2023-02-11T19:11:49.916Z,8.80
2023-02-11T19:14:38.768Z,8.80
2023-02-11T19:17:08.386Z,8.80
2023-02-11T19:19:36.716Z,8.70
2023-02-11T19:22:10.569Z,8.70
2023-02-11T19:24:38.776Z,8.70
2023-02-11T19:27:06.443Z,8.70
2023-02-11T19:29:35.285Z,8.70
2023-02-11T19:32:05.847Z,8.70
2023-02-11T19:34:34.127Z,8.70
2023-02-11T19:37:01.818Z,8.60
2023-02-11T19:39:29.516Z,8.60
2023-02-11T19:41:57.182Z,8.60
2023-02-11T19:44:24.976Z,8.60
2023-02-11T19:49:26.321Z,8.60
2023-02-11T19:51:55.901Z,8.60
2023-02-11T19:54:23.719Z,8.60
2023-02-11T19:56:51.788Z,8.60
2023-02-11T19:59:19.949Z,8.60
2023-02-11T20:01:49.205Z,8.50
2023-02-11T20:04:17.151Z,8.50
2023-02-11T20:06:44.991Z,8.50
2023-02-11T20:09:14.300Z,8.50
2023-02-11T20:11:43.604Z,8.50
2023-02-11T20:14:14.749Z,8.50
2023-02-11T20:16:49.172Z,8.50
2023-02-11T20:19:22.042Z,8.50
2023-02-11T20:21:53.081Z,8.50
2023-02-11T20:24:21.398Z,8.40
2023-02-11T20:26:49.678Z,8.40
2023-02-11T20:29:20.749Z,8.40
2023-02-11T20:31:49.872Z,8.40
2023-02-11T20:36:52.187Z,8.40
2023-02-11T20:39:22.365Z,8.40
2023-02-11T20:41:51.366Z,8.40
2023-02-11T20:44:19.400Z,8.40
2023-02-11T20:46:47.635Z,8.40
2023-02-11T20:49:18.946Z,8.40
2023-02-11T20:51:50.007Z,8.40
2023-02-11T20:54:19.967Z,8.40
2023-02-11T20:56:48.507Z,8.30
2023-02-11T20:59:17.602Z,8.40
2023-02-11T21:01:49.557Z,8.30
2023-02-11T21:04:20.524Z,8.30
2023-02-11T21:06:52.399Z,8.30
2023-02-11T21:09:23.395Z,8.30
2023-02-11T21:11:52.725Z,8.30
2023-02-11T21:14:22.304Z,8.30
2023-02-11T21:16:50.505Z,8.30
2023-02-11T21:19:19.170Z,8.30
2023-02-11T21:21:47.362Z,8.20
2023-02-11T21:24:15.284Z,8.30
2023-02-11T21:26:43.364Z,8.30
2023-02-11T21:29:11.900Z,8.20
2023-02-11T21:31:39.633Z,8.20
2023-02-11T21:34:07.643Z,8.20
2023-02-11T21:36:35.515Z,8.20
2023-02-11T21:39:04.362Z,8.20
2023-02-11T21:41:32.118Z,8.20
2023-02-11T21:43:59.817Z,8.20
2023-02-11T21:46:28.100Z,8.20
2023-02-11T21:48:56.638Z,8.20
2023-02-11T21:51:25.581Z,8.20
2023-02-11T21:54:03.796Z,8.20
2023-02-11T21:56:35.414Z,8.20
2023-02-11T21:59:03.814Z,8.10
2023-02-11T22:01:33.617Z,8.10
2023-02-11T22:04:01.365Z,8.10
2023-02-11T22:06:31.380Z,8.10
2023-02-11T22:09:01.927Z,8.10
2023-02-11T22:13:59.107Z,8.10
2023-02-11T22:16:27.914Z,8.10
2023-02-11T22:18:58.785Z,8.10
2023-02-11T22:21:26.668Z,8.10
2023-02-11T22:23:55.023Z,8.10
2023-02-11T22:26:24.968Z,8.00
2023-02-11T22:28:53.633Z,8.00
2023-02-11T22:31:25.070Z,9.00
2023-02-11T22:36:22.968Z,8.00
2023-02-11T22:38:50.930Z,8.00
2023-02-11T22:41:19.722Z,8.00
2023-02-11T22:43:47.713Z,8.00
2023-02-11T22:46:17.426Z,8.00
2023-02-11T22:48:45.402Z,8.00
2023-02-11T22:51:25.109Z,8.00
2023-02-11T22:54:00.907Z,8.00
2023-02-11T22:56:29.982Z,7.90
2023-02-11T22:58:59.512Z,7.90
2023-02-11T23:01:28.341Z,7.90
2023-02-11T23:03:56.602Z,7.90
2023-02-11T23:06:24.279Z,7.90
2023-02-11T23:08:51.923Z,7.90
2023-02-11T23:11:26.157Z,7.90
2023-02-11T23:13:54.265Z,7.90
2023-02-11T23:16:25.194Z,7.80
2023-02-11T23:18:54.884Z,7.80
2023-02-11T23:21:26.057Z,7.80
2023-02-11T23:23:56.113Z,7.80
2023-02-11T23:26:24.020Z,7.80
2023-02-11T23:31:22.993Z,7.80
2023-02-11T23:33:50.899Z,7.80
2023-02-11T23:36:20.201Z,7.80
2023-02-11T23:38:48.403Z,7.80
2023-02-11T23:41:16.842Z,7.80
2023-02-11T23:43:44.810Z,7.80
2023-02-11T23:46:12.479Z,7.80
2023-02-11T23:48:40.566Z,7.80
2023-02-11T23:51:09.832Z,7.80
2023-02-11T23:53:38.382Z,7.80
2023-02-11T23:56:08.559Z,7.70
2023-02-11T23:58:36.199Z,7.80
